Main page
METAR-TAF:

METAR-TAF

Airports :

Cluj International Airport

Cluj-Napoca, Romania

latitude: 46-47N, longitude: 023-34E, elevation: 315 m

Current weather observation

The report was made 40 minutes ago, at 20:30 UTC
Wind 1 kt from variable directions
Temperature 1°C
Humidity 93%
Pressure 1027 hPa
Visibility 10 km or more
no clouds below 1500 m and no cumulonimbus

METAR: LRCL 282030Z VRB01KT CAVOK 01/00 Q1027

Time: 00:10 (21:10 UTC)

Forecast

The report was made 1 hour and 10 minutes ago, at 20:00 UTC
Forecast valid from 28 at 21 UTC to 29 at 06 UTC
Wind 4 kt from variable directions
Visibility 10 km or more
no clouds below 1500 m and no cumulonimbus
Temporary
from 29 at 02 UTC to 29 at 06 UTC
Visibility: 3000 m
mist

TAF: LRCL 282000Z 2821/2906 VRB04KT CAVOK TEMPO 2902/2906 3000 BR

Weather observations and forecasts of more than 4000 airports (METAR and TAF reports).

The available stations are represented by yellow and red dots on the map.

Hover mouse over dot to see the name of the station.

Then click to see weather observations and forecasts.

To change the map : click on the green buttons with a black cross to zoom in, on the green button with a dash to zoom out, or on the green arrows for adjacent maps.


METAR-TAF: